Aviation Digital Data Service (ADDS)

Output produced by METARs form (0130 UTC 19 December 2014)
found at http://aviationweather.gov/adds/metars/
 
KALB 182342Z 1900/1924 30010G20KT P6SM BKN025 OVC050 
     FM190300 31010G16KT P6SM OVC025 
     FM191200 32011G18KT P6SM BKN025 
     FM191500 32012G20KT P6SM SCT025 BKN040 
     FM191800 33009KT P6SM SCT040